createdAt,value
2018-08-31T00:02:12.433Z,13.60
2018-08-31T00:06:04.284Z,13.60
2018-08-31T00:09:02.468Z,13.70
2018-08-31T00:11:59.517Z,13.50
2018-08-31T00:14:29.226Z,13.50
2018-08-31T00:16:58.969Z,13.60
2018-08-31T00:19:28.527Z,13.70
2018-08-31T00:21:58.146Z,13.70
2018-08-31T00:24:44.734Z,13.80
2018-08-31T00:27:30.875Z,13.70
2018-08-31T00:32:23.008Z,13.90
2018-08-31T00:39:21.766Z,14.00
2018-08-31T00:44:43.087Z,13.80
2018-08-31T00:47:12.880Z,13.60
2018-08-31T00:49:42.625Z,13.50
2018-08-31T00:52:12.185Z,13.70
2018-08-31T00:54:41.883Z,13.70
2018-08-31T00:57:11.592Z,13.80
2018-08-31T00:59:41.169Z,13.80
2018-08-31T01:02:11.428Z,13.80
2018-08-31T01:04:41.497Z,13.70
2018-08-31T01:07:11.745Z,13.70
2018-08-31T01:09:41.601Z,13.70
2018-08-31T01:12:11.417Z,13.60
2018-08-31T01:14:41.035Z,13.60
2018-08-31T01:17:10.589Z,13.60
2018-08-31T01:19:40.216Z,13.50
2018-08-31T01:22:09.892Z,13.40
2018-08-31T01:24:39.553Z,13.40
2018-08-31T01:27:09.857Z,13.40
2018-08-31T01:29:39.466Z,13.50
2018-08-31T01:32:09.193Z,13.60
2018-08-31T01:34:38.945Z,13.70
2018-08-31T01:37:08.592Z,13.70
2018-08-31T01:39:38.311Z,13.60
2018-08-31T01:42:07.883Z,13.50
2018-08-31T01:44:37.505Z,13.60
2018-08-31T01:47:07.314Z,13.60
2018-08-31T01:49:37.057Z,13.60
2018-08-31T01:52:06.767Z,13.40
2018-08-31T01:54:36.447Z,13.50
2018-08-31T01:57:06.384Z,13.30
2018-08-31T01:59:36.222Z,13.40
2018-08-31T02:02:05.824Z,13.50
2018-08-31T02:04:35.496Z,13.60
2018-08-31T02:07:05.999Z,13.70
2018-08-31T02:09:35.652Z,13.60
2018-08-31T02:12:05.362Z,13.70
2018-08-31T02:14:35.083Z,13.70
2018-08-31T02:17:05.305Z,13.70
2018-08-31T02:19:34.904Z,13.80
2018-08-31T02:22:04.513Z,13.90
2018-08-31T02:24:34.833Z,13.90
2018-08-31T02:27:04.750Z,13.90
2018-08-31T02:29:34.453Z,13.80
2018-08-31T02:32:04.282Z,13.80
2018-08-31T02:34:33.981Z,13.60
2018-08-31T02:37:03.520Z,13.60
2018-08-31T02:39:33.107Z,13.40
2018-08-31T02:42:02.605Z,13.40
2018-08-31T02:44:32.307Z,13.30
2018-08-31T02:47:01.906Z,13.30
2018-08-31T02:49:31.616Z,13.20
2018-08-31T02:52:01.238Z,13.30
2018-08-31T02:54:30.913Z,13.30
2018-08-31T02:57:00.541Z,13.20
2018-08-31T02:59:30.524Z,13.10
2018-08-31T03:02:00.083Z,13.10
2018-08-31T03:04:29.805Z,13.00
2018-08-31T03:06:59.485Z,13.00
2018-08-31T03:09:29.103Z,13.20
2018-08-31T03:11:58.930Z,13.10
2018-08-31T03:14:28.707Z,13.10
2018-08-31T03:16:58.421Z,13.00
2018-08-31T03:19:28.044Z,13.10
2018-08-31T03:21:57.857Z,13.20
2018-08-31T03:24:27.440Z,13.30
2018-08-31T03:26:57.200Z,13.10
2018-08-31T03:29:26.973Z,13.00
2018-08-31T03:31:56.570Z,12.90
2018-08-31T03:34:26.199Z,12.80
2018-08-31T03:36:55.881Z,12.70
2018-08-31T03:39:25.550Z,12.60
2018-08-31T03:41:55.276Z,12.60
2018-08-31T03:44:24.871Z,12.50
2018-08-31T03:46:57.476Z,12.40
2018-08-31T03:49:27.251Z,12.40
2018-08-31T03:51:56.786Z,12.30
2018-08-31T03:54:26.966Z,12.30
2018-08-31T03:56:57.170Z,12.30
2018-08-31T03:59:26.893Z,12.30
2018-08-31T04:01:56.422Z,12.30
2018-08-31T04:04:26.073Z,12.30
2018-08-31T04:06:55.529Z,12.30
2018-08-31T04:09:25.178Z,12.20
2018-08-31T04:11:54.769Z,12.20
2018-08-31T04:14:24.423Z,12.10
2018-08-31T04:16:54.153Z,12.10
2018-08-31T04:19:23.824Z,12.00
2018-08-31T04:21:53.320Z,12.00
2018-08-31T04:24:22.966Z,12.00
2018-08-31T04:26:52.541Z,12.00
2018-08-31T04:29:22.079Z,11.90
2018-08-31T04:31:51.678Z,11.80
2018-08-31T04:34:21.499Z,11.90
2018-08-31T04:36:51.115Z,11.90
2018-08-31T04:39:21.089Z,11.90
2018-08-31T04:41:50.712Z,12.00
2018-08-31T04:44:20.451Z,12.00
2018-08-31T04:46:50.049Z,12.10
2018-08-31T04:49:19.832Z,12.10
2018-08-31T04:51:49.475Z,12.10
2018-08-31T04:54:19.329Z,12.20
2018-08-31T04:56:48.976Z,12.20
2018-08-31T04:59:18.652Z,12.20
2018-08-31T05:01:48.179Z,12.30
2018-08-31T05:04:17.795Z,12.30
2018-08-31T05:06:47.358Z,12.40
2018-08-31T05:09:16.903Z,12.40
2018-08-31T05:11:46.551Z,12.40
2018-08-31T05:14:16.118Z,12.50
2018-08-31T05:16:45.729Z,12.50
2018-08-31T05:19:15.358Z,12.60
2018-08-31T05:21:44.889Z,12.70
2018-08-31T05:24:14.541Z,12.70
2018-08-31T05:26:43.991Z,12.80
2018-08-31T05:29:13.728Z,13.00
2018-08-31T05:31:43.393Z,13.20
2018-08-31T05:34:13.171Z,13.30
2018-08-31T05:36:42.832Z,13.40
2018-08-31T05:39:13.053Z,13.50
2018-08-31T05:41:43.265Z,13.50
2018-08-31T05:44:13.058Z,13.70
2018-08-31T05:46:42.776Z,13.90
2018-08-31T05:49:12.484Z,14.00
2018-08-31T05:51:42.094Z,14.20
2018-08-31T05:54:12.248Z,14.30
2018-08-31T05:56:41.892Z,14.50
2018-08-31T05:59:11.538Z,14.70
2018-08-31T06:01:41.249Z,14.90
2018-08-31T06:04:10.952Z,15.00
2018-08-31T06:06:40.570Z,15.10
2018-08-31T06:09:11.009Z,15.20
2018-08-31T06:11:40.677Z,15.30
2018-08-31T06:14:10.279Z,15.40
2018-08-31T06:16:40.002Z,15.40
2018-08-31T06:19:16.300Z,15.50
2018-08-31T06:21:45.875Z,15.60
2018-08-31T06:24:15.389Z,15.60
2018-08-31T06:26:44.835Z,15.70
2018-08-31T06:29:15.334Z,15.80
2018-08-31T06:31:44.907Z,15.90
2018-08-31T06:34:14.587Z,16.10
2018-08-31T06:36:44.235Z,16.20
2018-08-31T06:39:13.949Z,16.30
2018-08-31T06:41:43.652Z,16.40
2018-08-31T06:44:13.289Z,16.50
2018-08-31T06:46:42.984Z,16.60
2018-08-31T06:49:13.112Z,16.80
2018-08-31T06:51:42.855Z,16.80
2018-08-31T06:54:12.497Z,16.80
2018-08-31T06:56:42.134Z,16.90
2018-08-31T06:59:11.844Z,17.00
2018-08-31T07:01:41.423Z,17.00
2018-08-31T07:04:10.923Z,17.10
2018-08-31T07:06:40.673Z,17.10
2018-08-31T07:09:12.021Z,17.20
2018-08-31T07:11:41.724Z,17.50
2018-08-31T07:14:11.361Z,17.70
2018-08-31T07:16:40.955Z,17.90
2018-08-31T07:19:11.377Z,18.20
2018-08-31T07:21:40.995Z,18.30
2018-08-31T07:24:11.314Z,18.20
2018-08-31T07:26:41.033Z,18.40
2018-08-31T07:29:10.729Z,19.00
2018-08-31T07:31:40.852Z,20.10
2018-08-31T07:34:10.317Z,21.70
2018-08-31T07:36:39.857Z,22.80
2018-08-31T07:39:10.995Z,24.30
2018-08-31T07:41:41.180Z,26.30
2018-08-31T07:44:10.915Z,27.80
2018-08-31T07:46:40.525Z,28.80
2018-08-31T07:49:10.136Z,28.90
2018-08-31T07:51:39.653Z,29.80
2018-08-31T07:54:09.286Z,31.40
2018-08-31T07:56:38.838Z,31.40
2018-08-31T07:59:08.563Z,30.20
2018-08-31T08:01:38.194Z,28.50
2018-08-31T08:04:08.128Z,27.10
2018-08-31T08:06:38.092Z,25.10
2018-08-31T08:09:10.197Z,24.50
2018-08-31T08:11:39.897Z,24.30
2018-08-31T08:14:09.584Z,23.50
2018-08-31T08:16:39.110Z,23.10
2018-08-31T08:19:08.731Z,22.50
2018-08-31T08:21:38.431Z,22.30
2018-08-31T08:24:09.395Z,21.80
2018-08-31T08:26:39.004Z,21.50
2018-08-31T08:29:08.871Z,21.30
2018-08-31T08:31:38.840Z,21.40
2018-08-31T08:34:08.705Z,21.40
2018-08-31T08:36:38.492Z,21.40
2018-08-31T08:39:09.105Z,21.80
2018-08-31T08:41:39.041Z,22.40
2018-08-31T08:44:09.885Z,22.60
2018-08-31T08:46:40.020Z,23.40
2018-08-31T08:49:09.713Z,24.30
2018-08-31T08:51:39.362Z,25.30
2018-08-31T08:54:08.999Z,25.90
2018-08-31T08:56:39.486Z,26.10
2018-08-31T08:59:09.421Z,25.20
2018-08-31T09:01:39.329Z,24.60
2018-08-31T09:04:09.198Z,23.70
2018-08-31T09:06:39.155Z,23.20
2018-08-31T09:09:10.001Z,23.30
2018-08-31T09:11:39.909Z,23.80
2018-08-31T09:14:09.968Z,25.30
2018-08-31T09:16:39.542Z,27.30
2018-08-31T09:19:09.244Z,29.00
2018-08-31T09:21:38.963Z,30.10
2018-08-31T09:24:08.843Z,31.10
2018-08-31T09:26:38.521Z,31.80
2018-08-31T09:29:08.401Z,31.50
2018-08-31T09:31:38.158Z,31.00
2018-08-31T09:34:07.841Z,30.20
2018-08-31T09:36:37.598Z,29.30
2018-08-31T09:39:09.649Z,27.90
2018-08-31T09:41:39.295Z,27.00
2018-08-31T09:44:08.864Z,26.60
2018-08-31T09:46:38.559Z,26.60
2018-08-31T09:49:08.424Z,28.10
2018-08-31T09:51:38.398Z,27.60
2018-08-31T09:54:08.095Z,27.30
2018-08-31T09:56:37.685Z,26.60
2018-08-31T09:59:07.294Z,26.00
2018-08-31T10:01:37.425Z,25.20
2018-08-31T10:04:07.187Z,24.50
2018-08-31T10:06:36.882Z,24.10
2018-08-31T10:09:09.385Z,23.50
2018-08-31T10:11:39.122Z,23.90
2018-08-31T10:14:15.477Z,25.50
2018-08-31T10:16:45.308Z,27.20
2018-08-31T10:19:15.326Z,28.40
2018-08-31T10:21:44.932Z,29.10
2018-08-31T10:24:14.715Z,29.50
2018-08-31T10:26:44.365Z,30.30
2018-08-31T10:29:14.234Z,30.60
2018-08-31T10:31:43.998Z,31.30
2018-08-31T10:34:14.178Z,31.20
2018-08-31T10:36:43.767Z,33.20
2018-08-31T10:39:14.930Z,33.00
2018-08-31T10:41:44.647Z,32.20
2018-08-31T10:44:14.619Z,31.70
2018-08-31T10:46:44.311Z,32.10
2018-08-31T10:49:14.042Z,31.20
2018-08-31T10:51:43.735Z,31.50
2018-08-31T10:54:13.406Z,32.20
2018-08-31T10:56:43.071Z,32.60
2018-08-31T10:59:12.784Z,32.90
2018-08-31T11:01:42.398Z,33.00
2018-08-31T11:04:12.216Z,32.90
2018-08-31T11:06:42.108Z,32.50
2018-08-31T11:09:12.211Z,31.90
2018-08-31T11:11:42.035Z,32.00
2018-08-31T11:14:11.938Z,32.10
2018-08-31T11:16:41.697Z,32.20
2018-08-31T11:19:11.380Z,31.60
2018-08-31T11:21:41.037Z,30.10
2018-08-31T11:24:10.815Z,30.10
2018-08-31T11:26:40.598Z,30.10
2018-08-31T11:29:10.279Z,30.40
2018-08-31T11:31:40.080Z,30.10
2018-08-31T11:34:10.141Z,29.80
2018-08-31T11:36:40.484Z,29.30
2018-08-31T11:39:11.690Z,29.10
2018-08-31T11:41:41.265Z,29.00
2018-08-31T11:44:11.354Z,28.50
2018-08-31T11:46:41.130Z,28.80
2018-08-31T11:49:10.862Z,28.50
2018-08-31T11:51:40.677Z,28.10
2018-08-31T11:54:10.149Z,27.20
2018-08-31T11:56:39.689Z,26.60
2018-08-31T11:59:09.307Z,25.90
2018-08-31T12:01:39.080Z,25.30
2018-08-31T12:04:08.748Z,24.90
2018-08-31T12:06:38.341Z,24.40
2018-08-31T12:09:09.903Z,24.40
2018-08-31T12:11:39.758Z,24.40
2018-08-31T12:14:09.902Z,24.20
2018-08-31T12:16:39.664Z,24.10
2018-08-31T12:19:09.637Z,24.00
2018-08-31T12:21:39.456Z,23.60
2018-08-31T12:24:10.052Z,23.20
2018-08-31T12:26:40.326Z,23.00
2018-08-31T12:29:10.185Z,23.00
2018-08-31T12:31:39.969Z,23.10
2018-08-31T12:34:09.596Z,23.20
2018-08-31T12:36:39.407Z,23.00
2018-08-31T12:39:10.827Z,22.90
2018-08-31T12:41:40.584Z,23.20
2018-08-31T12:44:10.388Z,23.40
2018-08-31T12:46:40.116Z,23.40
2018-08-31T12:49:10.130Z,23.40
2018-08-31T12:51:39.966Z,23.50
2018-08-31T12:54:09.629Z,23.60
2018-08-31T12:56:39.292Z,23.70
2018-08-31T12:59:09.074Z,23.80
2018-08-31T13:01:38.776Z,24.10
2018-08-31T13:04:08.541Z,24.40
2018-08-31T13:06:38.382Z,24.70
2018-08-31T13:09:08.935Z,24.60
2018-08-31T13:11:38.714Z,24.40
2018-08-31T13:14:08.436Z,24.00
2018-08-31T13:16:37.935Z,23.80
2018-08-31T13:19:07.500Z,23.40
2018-08-31T13:21:37.252Z,23.50
2018-08-31T13:24:07.066Z,23.60
2018-08-31T13:26:36.712Z,23.80
2018-08-31T13:29:06.478Z,24.00
2018-08-31T13:31:36.148Z,24.00
2018-08-31T13:34:06.000Z,23.90
2018-08-31T13:36:35.565Z,23.70
2018-08-31T13:39:06.737Z,23.90
2018-08-31T13:41:36.567Z,23.90
2018-08-31T13:44:06.299Z,23.90
2018-08-31T13:46:35.837Z,23.90
2018-08-31T13:49:05.661Z,23.90
2018-08-31T13:51:35.341Z,23.80
2018-08-31T13:54:05.370Z,23.70
2018-08-31T13:56:35.539Z,23.60
2018-08-31T13:59:05.264Z,23.60
2018-08-31T14:01:35.059Z,23.70
2018-08-31T14:04:04.763Z,23.60
2018-08-31T14:06:37.134Z,23.60
2018-08-31T14:09:08.178Z,23.30
2018-08-31T14:11:37.923Z,23.40
2018-08-31T14:14:07.681Z,23.70
2018-08-31T14:16:37.928Z,23.90
2018-08-31T14:19:09.310Z,24.00
2018-08-31T14:21:39.725Z,24.10
2018-08-31T14:24:09.524Z,23.90
2018-08-31T14:26:39.357Z,23.80
2018-08-31T14:29:09.266Z,23.60
2018-08-31T14:31:38.994Z,23.20
2018-08-31T14:34:08.888Z,23.00
2018-08-31T14:36:38.808Z,23.10
2018-08-31T14:39:10.474Z,23.30
2018-08-31T14:41:40.261Z,23.30
2018-08-31T14:44:10.279Z,23.50
2018-08-31T14:46:43.097Z,23.60
2018-08-31T14:49:12.940Z,23.20
2018-08-31T14:51:42.793Z,22.70
2018-08-31T14:54:12.425Z,22.60
2018-08-31T14:56:42.186Z,22.60
2018-08-31T14:59:12.091Z,22.30
2018-08-31T15:01:43.307Z,22.20
2018-08-31T15:04:13.016Z,22.30
2018-08-31T15:06:43.499Z,22.30
2018-08-31T15:09:13.214Z,22.00
2018-08-31T15:11:42.789Z,22.10
2018-08-31T15:14:13.223Z,22.20
2018-08-31T15:16:43.001Z,22.20
2018-08-31T15:19:12.803Z,22.30
2018-08-31T15:21:42.595Z,22.60
2018-08-31T15:24:12.275Z,22.50
2018-08-31T15:26:41.892Z,22.40
2018-08-31T15:29:11.801Z,22.30
2018-08-31T15:31:41.577Z,22.30
2018-08-31T15:34:12.530Z,22.30
2018-08-31T15:36:42.260Z,22.40
2018-08-31T15:39:12.144Z,22.50
2018-08-31T15:41:41.995Z,22.40
2018-08-31T15:44:12.280Z,22.50
2018-08-31T15:46:42.155Z,22.50
2018-08-31T15:49:11.853Z,22.50
2018-08-31T15:51:41.748Z,22.40
2018-08-31T15:54:11.408Z,22.40
2018-08-31T15:56:41.129Z,22.30
2018-08-31T15:59:10.807Z,22.30
2018-08-31T16:01:40.704Z,22.30
2018-08-31T16:04:10.436Z,22.40
2018-08-31T16:06:40.179Z,22.10
2018-08-31T16:09:10.573Z,22.10
2018-08-31T16:11:40.282Z,22.10
2018-08-31T16:14:09.895Z,21.90
2018-08-31T16:16:39.671Z,21.90
2018-08-31T16:19:09.496Z,21.80
2018-08-31T16:21:39.301Z,21.70
2018-08-31T16:24:09.000Z,21.70
2018-08-31T16:26:38.772Z,21.60
2018-08-31T16:29:08.585Z,21.40
2018-08-31T16:31:38.363Z,21.30
2018-08-31T16:34:09.460Z,20.90
2018-08-31T16:36:39.201Z,20.80
2018-08-31T16:39:09.917Z,20.80
2018-08-31T16:41:39.755Z,20.70
2018-08-31T16:44:09.637Z,20.60
2018-08-31T16:46:39.329Z,20.60
2018-08-31T16:49:08.929Z,20.50
2018-08-31T16:51:38.619Z,20.50
2018-08-31T16:54:08.544Z,20.30
2018-08-31T16:56:38.718Z,20.20
2018-08-31T16:59:08.575Z,20.00
2018-08-31T17:01:38.303Z,19.90
2018-08-31T17:04:08.065Z,19.70
2018-08-31T17:06:37.838Z,19.50
2018-08-31T17:09:11.683Z,19.40
2018-08-31T17:11:41.722Z,19.20
2018-08-31T17:14:11.478Z,19.10
2018-08-31T17:16:41.446Z,19.00
2018-08-31T17:19:11.392Z,18.80
2018-08-31T17:21:41.273Z,18.70
2018-08-31T17:24:11.022Z,18.70
2018-08-31T17:26:46.159Z,18.50
2018-08-31T17:29:20.998Z,18.50
2018-08-31T17:31:55.766Z,18.40
2018-08-31T17:34:30.431Z,18.20
2018-08-31T17:37:05.119Z,18.20
2018-08-31T17:39:34.803Z,18.10
2018-08-31T17:42:04.499Z,18.00
2018-08-31T17:44:34.190Z,18.00
2018-08-31T17:47:03.801Z,17.90
2018-08-31T17:49:33.472Z,17.90
2018-08-31T17:52:03.185Z,17.90
2018-08-31T17:54:32.940Z,17.80
2018-08-31T17:57:02.482Z,17.70
2018-08-31T17:59:32.189Z,17.60
2018-08-31T18:02:02.192Z,17.50
2018-08-31T18:04:31.707Z,17.40
2018-08-31T18:07:01.441Z,17.30
2018-08-31T18:09:31.191Z,17.20
2018-08-31T18:12:00.764Z,17.10
2018-08-31T18:14:30.622Z,17.00
2018-08-31T18:17:00.427Z,16.90
2018-08-31T18:19:30.013Z,16.80
2018-08-31T18:21:59.688Z,16.80
2018-08-31T18:24:29.645Z,16.70
2018-08-31T18:26:59.657Z,16.50
2018-08-31T18:29:29.745Z,16.50
2018-08-31T18:31:59.388Z,16.40
2018-08-31T18:34:29.103Z,16.40
2018-08-31T18:36:58.782Z,16.40
2018-08-31T18:39:28.388Z,16.30
2018-08-31T18:41:57.995Z,16.40
2018-08-31T18:44:27.791Z,16.30
2018-08-31T18:46:57.605Z,16.40
2018-08-31T18:49:27.448Z,16.40
2018-08-31T18:51:57.361Z,16.40
2018-08-31T18:54:26.928Z,16.40
2018-08-31T18:56:56.541Z,16.40
2018-08-31T18:59:26.429Z,16.40
2018-08-31T19:01:56.494Z,16.50
2018-08-31T19:04:26.117Z,16.50
2018-08-31T19:06:55.816Z,16.50
2018-08-31T19:09:25.433Z,16.50
2018-08-31T19:12:01.705Z,16.40
2018-08-31T19:14:31.412Z,16.50
2018-08-31T19:17:01.079Z,16.40
2018-08-31T19:19:30.936Z,16.40
2018-08-31T19:22:00.825Z,16.30
2018-08-31T19:24:30.649Z,16.30
2018-08-31T19:27:00.308Z,16.30
2018-08-31T19:29:30.048Z,16.30
2018-08-31T19:31:59.574Z,16.20
2018-08-31T19:34:29.288Z,16.10
2018-08-31T19:36:58.990Z,16.20
2018-08-31T19:39:29.230Z,16.10
2018-08-31T19:41:58.909Z,16.10
2018-08-31T19:44:28.653Z,16.10
2018-08-31T19:46:58.308Z,16.00
2018-08-31T19:49:28.323Z,16.00
2018-08-31T19:51:58.702Z,16.00
2018-08-31T19:54:28.428Z,16.00
2018-08-31T19:56:58.321Z,16.00
2018-08-31T19:59:28.532Z,15.90
2018-08-31T20:01:58.654Z,15.80
2018-08-31T20:04:28.366Z,15.90
2018-08-31T20:06:57.967Z,15.90
2018-08-31T20:09:27.656Z,15.90
2018-08-31T20:11:57.414Z,15.90
2018-08-31T20:14:27.019Z,15.90
2018-08-31T20:16:56.657Z,15.80
2018-08-31T20:19:26.448Z,15.80
2018-08-31T20:21:56.194Z,15.80
2018-08-31T20:24:25.853Z,15.80
2018-08-31T20:26:55.525Z,15.80
2018-08-31T20:29:25.763Z,15.80
2018-08-31T20:31:55.769Z,15.70
2018-08-31T20:34:25.474Z,15.70
2018-08-31T20:36:55.360Z,15.70
2018-08-31T20:39:25.070Z,15.70
2018-08-31T20:41:54.797Z,15.70
2018-08-31T20:44:24.409Z,15.70
2018-08-31T20:46:54.750Z,15.60
2018-08-31T20:49:25.294Z,15.60
2018-08-31T20:51:55.039Z,15.60
2018-08-31T20:54:24.711Z,15.60
2018-08-31T20:56:54.224Z,15.50
2018-08-31T20:59:24.018Z,15.50
2018-08-31T21:01:53.683Z,15.40
2018-08-31T21:04:23.441Z,15.30
2018-08-31T21:06:53.051Z,15.30
2018-08-31T21:09:22.531Z,15.30
2018-08-31T21:11:52.148Z,15.30
2018-08-31T21:14:21.630Z,15.20
2018-08-31T21:16:51.533Z,15.20
2018-08-31T21:19:21.243Z,15.20
2018-08-31T21:21:50.900Z,15.20
2018-08-31T21:24:20.506Z,15.10
2018-08-31T21:26:50.257Z,15.10
2018-08-31T21:29:19.722Z,15.00
2018-08-31T21:31:49.324Z,15.00
2018-08-31T21:34:19.151Z,15.00
2018-08-31T21:36:48.731Z,15.10
2018-08-31T21:39:18.391Z,15.20
2018-08-31T21:41:48.185Z,15.20
2018-08-31T21:44:17.906Z,15.30
2018-08-31T21:46:47.673Z,15.30
2018-08-31T21:49:17.419Z,15.40
2018-08-31T21:51:47.235Z,15.40
2018-08-31T21:54:16.933Z,15.40
2018-08-31T21:56:46.622Z,15.40
2018-08-31T21:59:16.249Z,15.40
2018-08-31T22:01:49.904Z,15.40
2018-08-31T22:04:19.486Z,15.30
2018-08-31T22:06:49.149Z,15.30
2018-08-31T22:09:18.988Z,15.30
2018-08-31T22:11:48.531Z,15.20
2018-08-31T22:14:18.200Z,15.10
2018-08-31T22:16:47.994Z,15.10
2018-08-31T22:19:18.925Z,15.10
2018-08-31T22:21:48.561Z,15.00
2018-08-31T22:24:18.289Z,14.90
2018-08-31T22:26:47.845Z,14.70
2018-08-31T22:29:17.549Z,14.60
2018-08-31T22:31:47.061Z,14.50
2018-08-31T22:34:16.523Z,14.40
2018-08-31T22:36:46.083Z,14.40
2018-08-31T22:39:15.779Z,14.30
2018-08-31T22:41:45.647Z,14.20
2018-08-31T22:44:15.306Z,14.10
2018-08-31T22:46:44.979Z,14.00
2018-08-31T22:49:14.747Z,13.90
2018-08-31T22:51:44.340Z,13.70
2018-08-31T22:54:13.857Z,13.70
2018-08-31T22:56:43.486Z,13.60
2018-08-31T22:59:13.044Z,13.60
2018-08-31T23:01:43.041Z,13.50
2018-08-31T23:04:12.682Z,13.40
2018-08-31T23:06:42.338Z,13.50
2018-08-31T23:09:11.994Z,13.40
2018-08-31T23:11:41.611Z,13.40
2018-08-31T23:14:11.314Z,13.50
2018-08-31T23:16:40.925Z,13.50
2018-08-31T23:19:10.517Z,13.50
2018-08-31T23:21:40.030Z,13.60
2018-08-31T23:24:09.646Z,13.60
2018-08-31T23:26:39.114Z,13.60
2018-08-31T23:29:08.879Z,13.50
2018-08-31T23:31:38.999Z,13.50
2018-08-31T23:34:08.598Z,13.50
2018-08-31T23:36:38.351Z,13.50
2018-08-31T23:39:09.465Z,13.30
2018-08-31T23:41:39.160Z,13.40
2018-08-31T23:44:08.873Z,13.40
2018-08-31T23:46:38.773Z,13.30
2018-08-31T23:49:08.359Z,13.20
2018-08-31T23:51:37.986Z,13.20
2018-08-31T23:54:07.590Z,13.20
2018-08-31T23:56:37.273Z,13.20
2018-08-31T23:59:06.971Z,13.20
